Aérodrome :
LOGIN :

S'inscrire | Disclaimer

   EN    FR    IT 

 










Légende :    VFR   VFR Marginal   IFR   IFR Intensif   IFR Très Intensif
Visi : 
Plafond : 
>= 8 km
>= 3000ft
5 à 8 km
1000 à 3000 ft
1500m à 5 km
500 à 1000 ft
800 à 1500m
200 à 500 ft
< 800m
< 200 ft
Symboles :   Orages  Brouillard  Fortes neiges  Fortes précipitations  Vent > 20 kt
SIGMETs :   Divers  Orages  Givrage  Turbulence  Onde Orograph.  Cendres Volcan.







- Altitude de l'aérodrome : 26 ft
- Code IATA : BIA
- Voir les cartes d'approche


LFKB - Bastia

DERNIER METAR :
  • 211000Z AUTO 13011KT CAVOK 19/10 Q1018 TEMPO 13015G25KT

METARs EXPIRÉS :
  • 210930Z AUTO 13010KT 100V170 CAVOK 19/10 Q1018 TEMPO 13015G25KT
  • 210900Z AUTO 12011KT CAVOK 19/11 Q1018 TEMPO 13015G25KT
  • 210830Z AUTO 12009KT 090V150 CAVOK 19/11 Q1019 TEMPO 13015G25KT
  • 210800Z AUTO 11008KT CAVOK 18/11 Q1019 BECMG 13015G25KT
  • 210730Z AUTO 13004KT 080V170 CAVOK 18/11 Q1019 BECMG 13015G25KT

TAF TAF LFKB
Valide du 21 à 09h jusqu'au 22 à 09h UTC


210800Z 2109/2209 14015KT CAVOK TX20/2112Z TN12/2203Z
TEMPO 2109/2119 13015G25KT
TEMPO 2200/2206 22006KT
ATIS : +33 4 95 59 19 40
Pas de NOTAMs connus pour ce terrain.
2 SIGMETs publiés pour la FIR Marseille (LFMM) :
 
Turbulence forte
LFMM SIGMET 5 VALID 210900/211200 LFPW
LFMM MARSEILLE FIR/UIR SEV TURB FCST WI N4145 E00945 - N4115 E00945 - N4115 E00815 - N4300 E00930 - N4145 E00945 SFC/FL080 STNR NC=
Turbulence forte
LFMM SIGMET 4 VALID 210850/211200 LFPW
LFMM MARSEILLE FIR/UIR SEV TURB FCST WI N4445 E00700 - N4400 E00700 - N4345 E00800 - N4245 E00545 - N4445 E00615 - N4445 E00700 SFC/FL080 STNR NC=



MET'MAP, la Météo Aéronautique d'un coup d'oeil ! - Copyright ORBIFLY Décembre 2007 - Disclaimer

ORBIFLY MET'MAP TEAM :

Programmation & Développement : Alexandra Zaïnal
Conception & Développement : Baudouin d'Aumeries
Co-Programmation & Développement : Marc-Olivier Méhu
Soutien technique & logistique : Manuel Goepfert

Contact : metmap@orbifly.com




SOURCES & CREDITS :

   NOAA